createdAt,value
2018-03-11T00:02:18.991Z,10.03
2018-03-11T00:04:46.600Z,9.43
2018-03-11T00:07:14.969Z,9.93
2018-03-11T00:09:42.563Z,9.87
2018-03-11T00:12:10.850Z,8.60
2018-03-11T00:14:38.454Z,8.60
2018-03-11T00:17:06.015Z,8.00
2018-03-11T00:19:33.651Z,7.67
2018-03-11T00:22:01.273Z,7.57
2018-03-11T00:24:28.873Z,8.90
2018-03-11T00:26:56.492Z,8.57
2018-03-11T00:29:24.104Z,8.67
2018-03-11T00:31:51.642Z,8.77
2018-03-11T00:34:19.252Z,9.93
2018-03-11T00:36:46.913Z,9.47
2018-03-11T00:39:14.563Z,9.53
2018-03-11T00:41:42.133Z,10.70
2018-03-11T00:44:10.537Z,10.47
2018-03-11T00:46:38.903Z,10.53
2018-03-11T00:49:07.305Z,10.40
2018-03-11T00:51:34.883Z,10.90
2018-03-11T00:54:02.479Z,11.20
2018-03-11T00:56:30.062Z,10.43
2018-03-11T00:58:58.431Z,11.43
2018-03-11T01:01:26.787Z,12.10
2018-03-11T01:03:54.414Z,12.13
2018-03-11T01:06:22.010Z,12.33
2018-03-11T01:08:49.588Z,11.60
2018-03-11T01:11:17.919Z,11.87
2018-03-11T01:13:45.534Z,12.07
2018-03-11T01:16:13.899Z,12.00
2018-03-11T01:18:42.262Z,12.60
2018-03-11T01:21:09.906Z,13.13
2018-03-11T01:23:37.513Z,12.10
2018-03-11T01:26:05.899Z,13.07
2018-03-11T01:28:33.517Z,13.00
2018-03-11T01:31:01.170Z,13.87
2018-03-11T01:33:28.806Z,15.20
2018-03-11T01:35:56.411Z,15.40
2018-03-11T01:38:23.977Z,15.97
2018-03-11T01:40:52.352Z,16.63
2018-03-11T01:43:19.989Z,19.07
2018-03-11T01:45:47.625Z,19.43
2018-03-11T01:48:15.235Z,19.03
2018-03-11T01:50:42.800Z,19.62
2018-03-11T01:53:10.409Z,18.67
2018-03-11T01:55:38.031Z,20.50
2018-03-11T01:58:06.392Z,19.02
2018-03-11T02:00:33.996Z,21.27
2018-03-11T02:03:01.594Z,19.10
2018-03-11T02:05:29.224Z,18.77
2018-03-11T02:07:56.802Z,15.40
2018-03-11T02:10:24.387Z,15.60
2018-03-11T02:12:51.964Z,16.45
2018-03-11T02:15:19.584Z,16.40
2018-03-11T02:17:47.188Z,17.10
2018-03-11T02:20:15.530Z,16.67
2018-03-11T02:22:43.087Z,17.57
2018-03-11T02:25:10.724Z,17.30
2018-03-11T02:27:38.359Z,14.23
2018-03-11T02:30:06.785Z,13.37
2018-03-11T02:32:34.423Z,13.70
2018-03-11T02:35:02.050Z,13.80
2018-03-11T02:37:30.423Z,14.40
2018-03-11T02:39:58.763Z,19.10
2018-03-11T02:42:26.339Z,19.08
2018-03-11T02:44:53.960Z,18.25
2018-03-11T02:47:21.574Z,17.80
2018-03-11T02:49:49.149Z,19.37
2018-03-11T02:52:17.475Z,18.73
2018-03-11T02:54:45.082Z,19.80
2018-03-11T02:57:13.426Z,19.45
2018-03-11T02:59:41.076Z,21.58
2018-03-11T03:02:08.660Z,23.42
2018-03-11T03:04:36.268Z,23.77
2018-03-11T03:07:03.889Z,25.35
2018-03-11T03:09:31.492Z,28.48
2018-03-11T03:11:59.108Z,28.30
2018-03-11T03:14:26.731Z,31.95
2018-03-11T03:16:54.307Z,33.80
2018-03-11T03:19:21.914Z,39.90
2018-03-11T03:21:50.255Z,38.78
2018-03-11T03:24:17.879Z,36.00
2018-03-11T03:26:45.469Z,33.22
2018-03-11T03:29:13.051Z,35.72
2018-03-11T03:31:41.427Z,40.80
2018-03-11T03:34:09.052Z,39.10
2018-03-11T03:36:36.691Z,40.05
2018-03-11T03:39:04.259Z,41.50
2018-03-11T03:41:31.881Z,43.85
2018-03-11T03:44:00.242Z,44.85
2018-03-11T03:46:27.855Z,44.03
2018-03-11T03:48:55.426Z,44.45
2018-03-11T03:51:22.992Z,41.05
2018-03-11T03:53:50.559Z,43.63
2018-03-11T03:56:18.120Z,40.85
2018-03-11T03:58:45.699Z,43.85
2018-03-11T04:01:13.321Z,48.70
2018-03-11T04:03:40.952Z,50.40
2018-03-11T04:06:08.559Z,51.20
2018-03-11T04:08:36.152Z,50.30
2018-03-11T04:11:03.767Z,46.17
2018-03-11T04:13:31.389Z,44.25
2018-03-11T04:15:59.836Z,43.00
2018-03-11T04:18:27.430Z,43.22
2018-03-11T04:20:55.790Z,44.45
2018-03-11T04:23:24.166Z,46.42
2018-03-11T04:25:51.782Z,48.20
2018-03-11T04:28:19.450Z,49.92
2018-03-11T04:30:47.071Z,43.83
2018-03-11T04:33:15.407Z,38.17
2018-03-11T04:35:43.015Z,38.85
2018-03-11T04:38:10.598Z,41.40
2018-03-11T04:40:38.196Z,37.83
2018-03-11T04:43:05.783Z,34.53
2018-03-11T04:45:34.192Z,35.25
2018-03-11T04:48:01.742Z,36.90
2018-03-11T04:50:29.315Z,39.90
2018-03-11T04:52:56.951Z,43.97
2018-03-11T04:55:24.531Z,43.95
2018-03-11T04:57:52.151Z,43.38
2018-03-11T05:00:20.560Z,44.25
2018-03-11T05:02:48.166Z,44.92
2018-03-11T05:05:15.739Z,39.80
2018-03-11T05:07:43.380Z,39.92
2018-03-11T05:10:11.684Z,42.75
2018-03-11T05:12:39.268Z,37.58
2018-03-11T05:15:06.876Z,37.90
2018-03-11T05:17:34.487Z,34.20
2018-03-11T05:20:02.811Z,36.33
2018-03-11T05:22:30.445Z,35.20
2018-03-11T05:24:57.998Z,32.67
2018-03-11T05:27:25.976Z,34.05
2018-03-11T05:43:27.695Z,35.85
2018-03-11T05:45:55.984Z,36.72
2018-03-11T05:51:25.150Z,32.78
2018-03-11T05:53:52.684Z,28.50
2018-03-11T05:56:20.295Z,28.50
2018-03-11T05:58:48.651Z,26.02
2018-03-11T06:01:22.944Z,26.75
2018-03-11T06:03:50.551Z,37.55
2018-03-11T06:06:20.167Z,36.67
2018-03-11T06:08:48.551Z,45.05
2018-03-11T06:11:17.722Z,50.30
2018-03-11T06:13:45.330Z,38.35
2018-03-11T06:16:12.926Z,45.42
2018-03-11T06:18:49.086Z,52.05
2018-03-11T06:21:16.700Z,52.45
2018-03-11T06:23:44.278Z,61.53
2018-03-11T06:26:11.860Z,49.28
2018-03-11T06:28:39.486Z,53.45
2018-03-11T06:31:07.145Z,52.90
2018-03-11T06:33:34.739Z,44.80
2018-03-11T06:42:01.361Z,34.95
2018-03-11T06:44:29.719Z,31.00
2018-03-11T06:46:58.110Z,32.90
2018-03-11T06:49:25.719Z,25.85
2018-03-11T06:51:53.351Z,26.10
2018-03-11T06:54:20.936Z,28.98
2018-03-11T06:56:48.543Z,27.40
2018-03-11T06:59:16.107Z,32.83
2018-03-11T07:02:02.299Z,37.95
2018-03-11T07:04:29.928Z,37.25
2018-03-11T07:06:57.538Z,33.92
2018-03-11T07:09:25.899Z,31.50
2018-03-11T07:12:14.086Z,28.73
2018-03-11T07:20:39.539Z,26.30
2018-03-11T07:23:07.141Z,25.05
2018-03-11T07:25:41.359Z,24.58
2018-03-11T07:28:08.972Z,23.17
2018-03-11T07:30:36.628Z,23.12
2018-03-11T07:33:04.229Z,23.42
2018-03-11T07:35:31.876Z,21.23
2018-03-11T07:37:59.487Z,20.00
2018-03-11T07:40:27.841Z,21.25
2018-03-11T07:42:55.451Z,19.98
2018-03-11T07:45:23.071Z,17.80
2018-03-11T07:47:52.014Z,19.05
2018-03-11T07:50:19.598Z,19.53
2018-03-11T07:52:47.163Z,17.90
2018-03-11T07:55:14.801Z,16.10
2018-03-11T07:57:42.427Z,14.57
2018-03-11T08:00:10.881Z,13.80
2018-03-11T08:02:38.503Z,14.30
2018-03-11T08:05:06.157Z,14.00
2018-03-11T08:07:33.787Z,15.77
2018-03-11T08:10:01.395Z,14.90
2018-03-11T08:12:28.982Z,14.50
2018-03-11T08:14:56.583Z,15.33
2018-03-11T08:17:24.193Z,15.43
2018-03-11T08:19:51.832Z,16.27
2018-03-11T08:22:20.167Z,17.37
2018-03-11T08:24:50.041Z,18.10
2018-03-11T08:27:17.685Z,19.00
2018-03-11T08:29:45.316Z,19.23
2018-03-11T08:32:12.942Z,19.90
2018-03-11T08:34:40.526Z,20.87
2018-03-11T08:37:08.188Z,26.03
2018-03-11T08:39:35.835Z,27.00
2018-03-11T08:42:04.191Z,21.57
2018-03-11T08:44:31.782Z,19.63
2018-03-11T08:47:00.161Z,23.47
2018-03-11T08:49:34.423Z,21.80
2018-03-11T08:52:02.003Z,18.77
2018-03-11T08:54:29.671Z,17.13
2018-03-11T08:56:57.256Z,15.13
2018-03-11T08:59:25.656Z,15.47
2018-03-11T09:01:53.229Z,13.50
2018-03-11T09:04:20.883Z,15.80
2018-03-11T09:06:48.486Z,12.40
2018-03-11T09:09:16.111Z,15.30
2018-03-11T09:11:45.455Z,13.73
2018-03-11T09:14:13.085Z,14.00
2018-03-11T09:16:40.720Z,14.83
2018-03-11T09:19:08.294Z,7.90
2018-03-11T09:21:36.704Z,7.17
2018-03-11T09:24:04.319Z,6.00
2018-03-11T09:26:31.927Z,6.20
2018-03-11T09:28:59.512Z,5.90
2018-03-11T09:31:49.409Z,6.40
2018-03-11T09:34:17.890Z,4.90
2018-03-11T09:36:45.506Z,4.80
2018-03-11T09:39:13.075Z,4.37
2018-03-11T09:41:40.662Z,4.27
2018-03-11T09:44:09.058Z,3.97
2018-03-11T09:46:36.680Z,3.63
2018-03-11T09:52:00.482Z,3.30
2018-03-11T09:54:28.114Z,3.83
2018-03-11T09:56:55.780Z,2.80
2018-03-11T09:59:23.379Z,3.00
2018-03-11T10:01:51.746Z,2.53
2018-03-11T10:04:20.183Z,3.10
2018-03-11T10:06:47.745Z,3.00
2018-03-11T10:09:15.308Z,3.80
2018-03-11T10:11:42.857Z,4.13
2018-03-11T10:14:10.479Z,3.80
2018-03-11T10:16:38.136Z,3.80
2018-03-11T10:19:05.765Z,3.87
2018-03-11T10:21:33.332Z,3.80
2018-03-11T10:24:00.898Z,3.90
2018-03-11T10:26:28.539Z,3.90
2018-03-11T10:28:56.140Z,3.50
2018-03-11T10:31:23.759Z,3.20
2018-03-11T10:33:51.340Z,3.57
2018-03-11T10:36:18.926Z,2.93
2018-03-11T10:38:49.361Z,3.13
2018-03-11T10:41:16.997Z,3.53
2018-03-11T10:43:45.361Z,3.13
2018-03-11T10:46:12.981Z,2.83
2018-03-11T10:48:40.603Z,2.80
2018-03-11T10:51:08.988Z,2.67
2018-03-11T10:53:37.403Z,2.80
2018-03-11T10:56:05.033Z,2.30
2018-03-11T10:58:33.386Z,2.40
2018-03-11T11:01:06.504Z,2.47
2018-03-11T11:03:34.077Z,2.50
2018-03-11T11:06:02.484Z,2.20
2018-03-11T11:08:30.094Z,2.43
2018-03-11T11:10:58.459Z,2.23
2018-03-11T11:13:26.111Z,2.33
2018-03-11T11:15:53.680Z,2.33
2018-03-11T11:18:22.076Z,2.43
2018-03-11T11:20:50.481Z,2.07
2018-03-11T11:23:18.091Z,2.43
2018-03-11T11:25:46.885Z,2.00
2018-03-11T11:28:14.447Z,2.00
2018-03-11T11:30:42.852Z,2.23
2018-03-11T11:33:10.462Z,2.03
2018-03-11T11:35:38.088Z,1.83
2018-03-11T11:38:05.658Z,1.87
2018-03-11T11:40:33.306Z,1.80
2018-03-11T11:43:02.074Z,1.80
2018-03-11T11:45:29.691Z,1.80
2018-03-11T11:47:57.261Z,1.57
2018-03-11T11:50:24.871Z,1.70
2018-03-11T11:52:56.430Z,2.00
2018-03-11T11:55:24.027Z,1.83
2018-03-11T11:57:51.607Z,2.00
2018-03-11T12:00:19.236Z,1.60
2018-03-11T12:02:46.871Z,1.60
2018-03-11T12:05:14.459Z,1.53
2018-03-11T12:07:42.071Z,1.60
2018-03-11T12:10:09.644Z,1.70
2018-03-11T12:12:37.211Z,1.70
2018-03-11T12:15:04.829Z,1.73
2018-03-11T12:17:33.392Z,2.03
2018-03-11T12:20:01.021Z,1.67
2018-03-11T12:22:28.646Z,1.60
2018-03-11T12:25:00.496Z,1.70
2018-03-11T12:27:28.859Z,1.40
2018-03-11T12:34:32.196Z,1.73
2018-03-11T12:37:00.494Z,1.90
2018-03-11T12:39:28.017Z,1.70
2018-03-11T12:41:55.547Z,1.67
2018-03-11T12:44:33.370Z,1.80
2018-03-11T12:47:01.894Z,1.70
2018-03-11T12:49:29.482Z,1.70
2018-03-11T12:51:57.071Z,2.00
2018-03-11T12:54:24.662Z,2.10
2018-03-11T12:56:52.991Z,2.23
2018-03-11T12:59:20.588Z,2.63
2018-03-11T13:01:48.946Z,2.40
2018-03-11T13:04:17.352Z,2.73
2018-03-11T13:06:45.699Z,2.30
2018-03-11T13:09:13.271Z,1.67
2018-03-11T13:11:40.897Z,1.70
2018-03-11T13:14:08.556Z,1.90
2018-03-11T13:16:38.138Z,1.83
2018-03-11T13:19:05.739Z,1.90
2018-03-11T13:21:33.333Z,1.97
2018-03-11T13:24:01.688Z,2.73
2018-03-11T13:26:31.263Z,2.00
2018-03-11T13:28:58.852Z,2.03
2018-03-11T13:31:26.421Z,2.37
2018-03-11T13:34:20.542Z,3.10
2018-03-11T13:36:48.200Z,2.70
2018-03-11T13:39:27.583Z,2.67
2018-03-11T13:41:55.152Z,2.90
2018-03-11T13:44:22.728Z,2.40
2018-03-11T13:47:11.044Z,2.60
2018-03-11T13:49:38.674Z,5.50
2018-03-11T13:52:18.085Z,3.13
2018-03-11T13:54:46.466Z,7.40
2018-03-11T14:00:26.968Z,4.30
2018-03-11T14:02:54.516Z,3.90
2018-03-11T14:05:22.062Z,4.00
2018-03-11T14:07:50.356Z,3.70
2018-03-11T14:10:17.872Z,3.20
2018-03-11T14:12:45.420Z,5.77
2018-03-11T14:15:12.981Z,3.77
2018-03-11T14:17:40.593Z,5.73
2018-03-11T14:20:08.169Z,4.83
2018-03-11T14:22:39.533Z,4.10
2018-03-11T14:25:07.112Z,4.10
2018-03-11T14:27:34.757Z,5.50
2018-03-11T14:30:02.363Z,3.00
2018-03-11T14:32:29.982Z,4.20
2018-03-11T14:34:57.591Z,3.70
2018-03-11T14:37:25.940Z,4.93
2018-03-11T14:39:53.534Z,3.90
2018-03-11T14:42:21.121Z,4.17
2018-03-11T14:44:48.714Z,4.47
2018-03-11T14:47:16.343Z,3.90
2018-03-11T14:49:43.938Z,4.50
2018-03-11T14:52:12.087Z,4.10
2018-03-11T14:54:39.725Z,3.73
2018-03-11T14:57:07.280Z,4.13
2018-03-11T14:59:34.867Z,4.30
2018-03-11T15:02:02.448Z,4.83
2018-03-11T15:04:30.031Z,5.10
2018-03-11T15:06:58.407Z,4.20
2018-03-11T15:09:26.767Z,3.87
2018-03-11T15:11:54.379Z,4.40
2018-03-11T15:14:21.969Z,3.10
2018-03-11T15:16:49.579Z,3.30
2018-03-11T15:19:17.176Z,2.80
2018-03-11T15:21:44.797Z,3.33
2018-03-11T15:24:12.403Z,3.60
2018-03-11T15:26:40.005Z,4.37
2018-03-11T15:29:08.363Z,6.43
2018-03-11T15:31:35.975Z,4.30
2018-03-11T15:34:03.569Z,4.20
2018-03-11T15:36:31.189Z,4.67
2018-03-11T15:38:58.780Z,4.13
2018-03-11T15:41:26.388Z,4.70
2018-03-11T15:43:53.975Z,5.60
2018-03-11T15:46:21.595Z,5.07
2018-03-11T15:48:49.162Z,4.43
2018-03-11T15:51:16.794Z,4.87
2018-03-11T15:53:44.407Z,4.47
2018-03-11T15:56:12.027Z,4.37
2018-03-11T15:58:39.657Z,6.67
2018-03-11T16:01:08.044Z,10.57
2018-03-11T16:03:35.680Z,8.47
2018-03-11T16:09:02.860Z,8.20
2018-03-11T16:11:30.433Z,11.10
2018-03-11T16:13:58.098Z,10.37
2018-03-11T16:16:25.738Z,9.20
2018-03-11T16:18:53.353Z,8.03
2018-03-11T16:21:21.012Z,10.70
2018-03-11T16:23:48.643Z,8.70
2018-03-11T16:26:16.241Z,8.03
2018-03-11T16:28:44.609Z,7.93
2018-03-11T16:31:13.145Z,8.30
2018-03-11T16:33:40.737Z,11.67
2018-03-11T16:36:08.392Z,9.07
2018-03-11T16:38:36.021Z,8.40
2018-03-11T16:41:03.596Z,9.40
2018-03-11T16:43:31.165Z,13.67
2018-03-11T16:45:58.777Z,11.93
2018-03-11T16:48:27.154Z,8.97
2018-03-11T16:50:55.566Z,9.97
2018-03-11T16:53:23.122Z,7.70
2018-03-11T16:55:50.711Z,8.90
2018-03-11T16:58:18.300Z,9.67
2018-03-11T17:00:46.803Z,6.70
2018-03-11T17:03:14.428Z,6.60
2018-03-11T17:05:43.003Z,7.87
2018-03-11T17:08:10.609Z,7.50
2018-03-11T17:10:41.269Z,7.27
2018-03-11T17:13:08.905Z,6.80
2018-03-11T17:15:38.437Z,7.53
2018-03-11T17:18:06.023Z,8.10
2018-03-11T17:20:33.655Z,7.97
2018-03-11T17:23:01.250Z,9.93
2018-03-11T17:25:28.850Z,10.20
2018-03-11T17:27:56.459Z,10.07
2018-03-11T17:30:24.076Z,11.17
2018-03-11T17:32:51.713Z,12.60
2018-03-11T17:35:19.263Z,9.80
2018-03-11T17:37:47.618Z,10.10
2018-03-11T17:40:15.183Z,9.90
2018-03-11T17:42:42.802Z,10.70
2018-03-11T17:45:10.383Z,8.13
2018-03-11T17:47:37.970Z,8.40
2018-03-11T17:50:05.583Z,7.20
2018-03-11T17:52:34.792Z,6.97
2018-03-11T17:55:02.427Z,6.23
2018-03-11T17:57:30.015Z,6.60
2018-03-11T17:59:57.643Z,6.23
2018-03-11T18:02:25.245Z,6.00
2018-03-11T18:04:52.851Z,5.20
2018-03-11T18:07:21.200Z,6.03
2018-03-11T18:09:48.812Z,6.20
2018-03-11T18:12:16.421Z,5.93
2018-03-11T18:14:44.038Z,6.13
2018-03-11T18:17:11.679Z,6.20
2018-03-11T18:19:40.045Z,6.70
2018-03-11T18:22:08.444Z,6.70
2018-03-11T18:24:37.972Z,7.50
2018-03-11T18:27:05.560Z,7.67
2018-03-11T18:29:33.172Z,6.20
2018-03-11T18:32:11.071Z,4.27
2018-03-11T18:34:38.682Z,5.20
2018-03-11T18:37:08.196Z,5.23
2018-03-11T18:39:35.842Z,4.47
2018-03-11T18:42:03.463Z,3.70
2018-03-11T18:44:42.806Z,3.40
2018-03-11T18:50:05.227Z,2.97
2018-03-11T18:52:57.063Z,3.50
2018-03-11T18:55:25.435Z,4.17
2018-03-11T18:57:53.772Z,3.70
2018-03-11T19:00:21.374Z,3.40
2018-03-11T19:02:49.761Z,4.60
2018-03-11T19:05:18.128Z,6.43
2018-03-11T19:07:45.725Z,5.30
2018-03-11T19:10:13.295Z,3.67
2018-03-11T19:12:45.573Z,3.47
2018-03-11T19:15:13.201Z,5.17
2018-03-11T19:17:40.812Z,4.10
2018-03-11T19:20:08.399Z,4.13
2018-03-11T19:22:36.012Z,3.67
2018-03-11T19:25:03.600Z,4.13
2018-03-11T19:27:31.242Z,4.10
2018-03-11T19:29:58.815Z,3.63
2018-03-11T19:32:26.438Z,3.10
2018-03-11T19:34:54.021Z,3.33
2018-03-11T19:37:21.638Z,3.13
2018-03-11T19:39:50.078Z,3.00
2018-03-11T19:42:17.658Z,2.80
2018-03-11T19:44:45.281Z,2.80
2018-03-11T19:47:12.857Z,2.30
2018-03-11T19:50:04.520Z,2.97
2018-03-11T19:52:32.884Z,3.30
2018-03-11T19:55:00.484Z,6.23
2018-03-11T19:57:28.055Z,4.63
2018-03-11T19:59:55.622Z,4.27
2018-03-11T20:02:23.291Z,3.57
2018-03-11T20:04:50.917Z,3.70
2018-03-11T20:07:18.487Z,3.80
2018-03-11T20:09:46.109Z,7.40
2018-03-11T20:12:13.710Z,10.30
2018-03-11T20:14:41.268Z,15.87
2018-03-11T20:17:08.881Z,23.03
2018-03-11T20:19:36.506Z,18.90
2018-03-11T20:22:04.156Z,31.07
2018-03-11T20:24:31.801Z,66.00
2018-03-11T20:26:59.421Z,18.97
2018-03-11T20:29:26.993Z,17.77
2018-03-11T20:31:55.387Z,14.30
2018-03-11T20:37:36.810Z,7.70
2018-03-11T20:40:04.360Z,6.90
2018-03-11T20:42:31.940Z,7.60
2018-03-11T20:44:59.523Z,8.50
2018-03-11T20:47:27.136Z,7.40
2018-03-11T20:49:54.692Z,8.10
2018-03-11T20:52:22.255Z,6.27
2018-03-11T20:54:49.898Z,9.47
2018-03-11T20:57:17.511Z,8.83
2018-03-11T20:59:45.106Z,10.47
2018-03-11T21:02:12.725Z,14.63
2018-03-11T21:04:40.333Z,11.77
2018-03-11T21:07:08.726Z,12.33
2018-03-11T21:09:37.082Z,10.87
2018-03-11T21:12:04.655Z,10.70
2018-03-11T21:14:33.083Z,11.40
2018-03-11T21:17:00.723Z,11.87
2018-03-11T21:19:28.351Z,13.60
2018-03-11T21:21:55.974Z,16.27
2018-03-11T21:24:23.592Z,17.10
2018-03-11T21:26:51.710Z,16.03
2018-03-11T21:29:19.280Z,18.40
2018-03-11T21:31:46.872Z,14.50
2018-03-11T21:34:15.207Z,12.93
2018-03-11T21:36:42.788Z,15.70
2018-03-11T21:39:21.016Z,16.10
2018-03-11T21:41:49.351Z,15.67
2018-03-11T21:44:16.995Z,15.83
2018-03-11T21:46:44.598Z,15.77
2018-03-11T21:49:12.216Z,15.40
2018-03-11T21:51:39.857Z,14.53
2018-03-11T21:54:07.427Z,19.03
2018-03-11T21:56:35.028Z,18.30
2018-03-11T21:59:02.637Z,16.00
2018-03-11T22:01:30.247Z,16.50
2018-03-11T22:03:57.874Z,16.77
2018-03-11T22:06:26.116Z,16.00
2018-03-11T22:08:54.497Z,19.13
2018-03-11T22:11:22.843Z,16.00
2018-03-11T22:13:50.456Z,18.10
2018-03-11T22:16:18.019Z,24.67
2018-03-11T22:18:45.644Z,30.53
2018-03-11T22:21:13.325Z,31.93
2018-03-11T22:23:41.654Z,30.70
2018-03-11T22:26:09.263Z,30.13
2018-03-11T22:28:37.656Z,26.70
2018-03-11T22:31:05.238Z,24.53
2018-03-11T22:33:32.843Z,21.57
2018-03-11T22:36:00.463Z,21.53
2018-03-11T22:38:28.112Z,21.47
2018-03-11T22:40:55.684Z,18.37
2018-03-11T22:43:23.284Z,20.17
2018-03-11T22:45:50.878Z,20.40
2018-03-11T22:48:18.466Z,19.13
2018-03-11T22:50:46.975Z,18.40
2018-03-11T22:53:14.626Z,17.20
2018-03-11T22:55:42.255Z,15.60
2018-03-11T22:58:09.862Z,15.20
2018-03-11T23:00:37.453Z,16.50
2018-03-11T23:03:05.106Z,15.77
2018-03-11T23:05:33.467Z,17.70
2018-03-11T23:08:01.091Z,21.40
2018-03-11T23:10:28.648Z,24.80
2018-03-11T23:12:59.240Z,24.80
2018-03-11T23:15:26.822Z,24.60
2018-03-11T23:17:54.394Z,29.30
2018-03-11T23:20:22.004Z,33.40
2018-03-11T23:22:50.331Z,34.10
2018-03-11T23:25:17.989Z,32.87
2018-03-11T23:27:45.567Z,32.57
2018-03-11T23:30:13.159Z,32.80
2018-03-11T23:32:40.752Z,33.67
2018-03-11T23:35:08.308Z,29.80
2018-03-11T23:37:35.880Z,27.43
2018-03-11T23:40:03.475Z,24.37
2018-03-11T23:42:31.084Z,21.50
2018-03-11T23:44:58.663Z,19.50
2018-03-11T23:47:26.309Z,18.77
2018-03-11T23:49:53.926Z,16.27
2018-03-11T23:52:21.512Z,14.90
2018-03-11T23:54:49.871Z,14.30
2018-03-11T23:57:17.478Z,15.10
2018-03-11T23:59:45.871Z,14.87
